sensor_id;sensor_type;location;lat;lon;timestamp;temperature;humidity
32139;DHT22;18644;48.700;9.210;2024-03-02T00:01:36;9.00;64.20
32139;DHT22;18644;48.700;9.210;2024-03-02T00:04:04;9.00;64.20
32139;DHT22;18644;48.700;9.210;2024-03-02T00:06:32;9.10;64.20
32139;DHT22;18644;48.700;9.210;2024-03-02T00:09:00;9.10;64.20
32139;DHT22;18644;48.700;9.210;2024-03-02T00:11:27;9.10;64.20
32139;DHT22;18644;48.700;9.210;2024-03-02T00:13:54;9.10;64.20
32139;DHT22;18644;48.700;9.210;2024-03-02T00:16:21;9.10;64.20
32139;DHT22;18644;48.700;9.210;2024-03-02T00:18:49;9.00;64.10
32139;DHT22;18644;48.700;9.210;2024-03-02T00:21:16;9.00;64.00
32139;DHT22;18644;48.700;9.210;2024-03-02T00:23:45;9.00;64.00
32139;DHT22;18644;48.700;9.210;2024-03-02T00:26:14;9.00;64.00
32139;DHT22;18644;48.700;9.210;2024-03-02T00:28:42;9.00;64.10
32139;DHT22;18644;48.700;9.210;2024-03-02T00:31:12;9.00;64.00
32139;DHT22;18644;48.700;9.210;2024-03-02T00:33:41;9.00;64.00
32139;DHT22;18644;48.700;9.210;2024-03-02T00:36:10;9.00;64.80
32139;DHT22;18644;48.700;9.210;2024-03-02T00:38:44;9.00;64.00
32139;DHT22;18644;48.700;9.210;2024-03-02T00:41:21;9.00;64.00
32139;DHT22;18644;48.700;9.210;2024-03-02T00:43:56;9.00;64.00
32139;DHT22;18644;48.700;9.210;2024-03-02T00:46:24;8.90;63.90
32139;DHT22;18644;48.700;9.210;2024-03-02T00:48:54;8.90;63.90
32139;DHT22;18644;48.700;9.210;2024-03-02T00:51:22;8.90;64.00
32139;DHT22;18644;48.700;9.210;2024-03-02T00:53:50;8.90;64.00
32139;DHT22;18644;48.700;9.210;2024-03-02T00:56:19;8.90;64.00
32139;DHT22;18644;48.700;9.210;2024-03-02T00:58:46;8.90;64.10
32139;DHT22;18644;48.700;9.210;2024-03-02T01:01:13;8.80;63.90
32139;DHT22;18644;48.700;9.210;2024-03-02T01:03:41;8.80;63.90
32139;DHT22;18644;48.700;9.210;2024-03-02T01:06:08;8.80;64.00
32139;DHT22;18644;48.700;9.210;2024-03-02T01:08:36;8.80;64.00
32139;DHT22;18644;48.700;9.210;2024-03-02T01:11:03;8.80;64.10
32139;DHT22;18644;48.700;9.210;2024-03-02T01:13:32;8.80;65.00
32139;DHT22;18644;48.700;9.210;2024-03-02T01:16:00;8.80;64.30
32139;DHT22;18644;48.700;9.210;2024-03-02T01:18:28;8.80;64.30
32139;DHT22;18644;48.700;9.210;2024-03-02T01:20:54;8.80;64.30
32139;DHT22;18644;48.700;9.210;2024-03-02T01:23:22;8.80;64.40
32139;DHT22;18644;48.700;9.210;2024-03-02T01:25:49;8.80;64.30
32139;DHT22;18644;48.700;9.210;2024-03-02T01:28:16;8.90;64.40
32139;DHT22;18644;48.700;9.210;2024-03-02T01:30:44;8.90;64.30
32139;DHT22;18644;48.700;9.210;2024-03-02T01:33:11;8.90;64.30
32139;DHT22;18644;48.700;9.210;2024-03-02T01:35:38;8.80;64.10
32139;DHT22;18644;48.700;9.210;2024-03-02T01:38:05;8.80;64.00
32139;DHT22;18644;48.700;9.210;2024-03-02T01:40:33;8.80;64.00
32139;DHT22;18644;48.700;9.210;2024-03-02T01:43:00;8.80;64.00
32139;DHT22;18644;48.700;9.210;2024-03-02T01:45:28;8.80;64.00
32139;DHT22;18644;48.700;9.210;2024-03-02T01:47:56;8.80;64.10
32139;DHT22;18644;48.700;9.210;2024-03-02T01:50:27;8.80;64.10
32139;DHT22;18644;48.700;9.210;2024-03-02T01:52:55;8.80;64.00
32139;DHT22;18644;48.700;9.210;2024-03-02T01:55:22;8.70;63.90
32139;DHT22;18644;48.700;9.210;2024-03-02T01:57:49;8.70;63.80
32139;DHT22;18644;48.700;9.210;2024-03-02T02:00:18;8.70;63.70
32139;DHT22;18644;48.700;9.210;2024-03-02T02:02:45;8.60;63.60
32139;DHT22;18644;48.700;9.210;2024-03-02T02:05:14;8.60;63.60
32139;DHT22;18644;48.700;9.210;2024-03-02T02:07:41;8.50;63.60
32139;DHT22;18644;48.700;9.210;2024-03-02T02:10:09;8.50;63.70
32139;DHT22;18644;48.700;9.210;2024-03-02T02:12:36;8.40;63.70
32139;DHT22;18644;48.700;9.210;2024-03-02T02:15:03;8.40;63.60
32139;DHT22;18644;48.700;9.210;2024-03-02T02:17:31;8.40;63.40
32139;DHT22;18644;48.700;9.210;2024-03-02T02:19:58;8.30;63.10
32139;DHT22;18644;48.700;9.210;2024-03-02T02:22:26;8.30;63.10
32139;DHT22;18644;48.700;9.210;2024-03-02T02:24:53;8.20;63.10
32139;DHT22;18644;48.700;9.210;2024-03-02T02:27:20;8.10;63.00
32139;DHT22;18644;48.700;9.210;2024-03-02T02:29:46;8.10;63.20
32139;DHT22;18644;48.700;9.210;2024-03-02T02:32:13;8.00;63.50
32139;DHT22;18644;48.700;9.210;2024-03-02T02:34:40;8.00;63.70
32139;DHT22;18644;48.700;9.210;2024-03-02T02:37:07;7.90;64.50
32139;DHT22;18644;48.700;9.210;2024-03-02T02:39:35;7.90;63.90
32139;DHT22;18644;48.700;9.210;2024-03-02T02:42:02;7.80;64.00
32139;DHT22;18644;48.700;9.210;2024-03-02T02:44:29;7.80;64.20
32139;DHT22;18644;48.700;9.210;2024-03-02T02:46:56;7.80;64.30
32139;DHT22;18644;48.700;9.210;2024-03-02T02:49:23;7.70;64.40
32139;DHT22;18644;48.700;9.210;2024-03-02T02:51:50;7.70;64.60
32139;DHT22;18644;48.700;9.210;2024-03-02T02:54:17;7.70;64.70
32139;DHT22;18644;48.700;9.210;2024-03-02T02:56:45;7.60;64.70
32139;DHT22;18644;48.700;9.210;2024-03-02T02:59:12;7.60;64.60
32139;DHT22;18644;48.700;9.210;2024-03-02T03:01:39;7.60;64.40
32139;DHT22;18644;48.700;9.210;2024-03-02T03:04:06;7.50;64.10
32139;DHT22;18644;48.700;9.210;2024-03-02T03:06:33;7.50;64.00
32139;DHT22;18644;48.700;9.210;2024-03-02T03:08:59;7.40;63.80
32139;DHT22;18644;48.700;9.210;2024-03-02T03:11:27;7.40;63.80
32139;DHT22;18644;48.700;9.210;2024-03-02T03:13:55;7.40;63.80
32139;DHT22;18644;48.700;9.210;2024-03-02T03:16:22;7.30;63.90
32139;DHT22;18644;48.700;9.210;2024-03-02T03:18:49;7.30;64.10
32139;DHT22;18644;48.700;9.210;2024-03-02T03:21:18;7.20;64.20
32139;DHT22;18644;48.700;9.210;2024-03-02T03:23:45;7.20;64.40
32139;DHT22;18644;48.700;9.210;2024-03-02T03:26:12;7.10;64.40
32139;DHT22;18644;48.700;9.210;2024-03-02T03:28:39;7.10;64.50
32139;DHT22;18644;48.700;9.210;2024-03-02T03:31:07;7.10;64.60
32139;DHT22;18644;48.700;9.210;2024-03-02T03:33:34;7.10;64.60
32139;DHT22;18644;48.700;9.210;2024-03-02T03:36:01;7.00;64.50
32139;DHT22;18644;48.700;9.210;2024-03-02T03:38:29;7.00;64.40
32139;DHT22;18644;48.700;9.210;2024-03-02T03:40:56;6.90;64.10
32139;DHT22;18644;48.700;9.210;2024-03-02T03:43:23;6.90;64.00
32139;DHT22;18644;48.700;9.210;2024-03-02T03:45:50;6.80;63.90
32139;DHT22;18644;48.700;9.210;2024-03-02T03:48:18;6.80;64.00
32139;DHT22;18644;48.700;9.210;2024-03-02T03:50:45;6.70;64.00
32139;DHT22;18644;48.700;9.210;2024-03-02T03:53:12;6.70;63.90
32139;DHT22;18644;48.700;9.210;2024-03-02T03:55:40;6.60;63.80
32139;DHT22;18644;48.700;9.210;2024-03-02T03:58:07;6.60;63.70
32139;DHT22;18644;48.700;9.210;2024-03-02T04:00:34;6.50;63.60
32139;DHT22;18644;48.700;9.210;2024-03-02T04:03:01;6.50;63.50
32139;DHT22;18644;48.700;9.210;2024-03-02T04:05:29;6.40;63.60
32139;DHT22;18644;48.700;9.210;2024-03-02T04:07:56;6.40;63.60
32139;DHT22;18644;48.700;9.210;2024-03-02T04:10:23;6.30;63.70
32139;DHT22;18644;48.700;9.210;2024-03-02T04:12:50;6.30;63.80
32139;DHT22;18644;48.700;9.210;2024-03-02T04:15:17;6.30;63.90
32139;DHT22;18644;48.700;9.210;2024-03-02T04:17:44;6.20;63.80
32139;DHT22;18644;48.700;9.210;2024-03-02T04:20:11;6.20;63.80
32139;DHT22;18644;48.700;9.210;2024-03-02T04:22:40;6.10;63.70
32139;DHT22;18644;48.700;9.210;2024-03-02T04:25:07;6.10;63.70
32139;DHT22;18644;48.700;9.210;2024-03-02T04:27:35;6.00;63.60
32139;DHT22;18644;48.700;9.210;2024-03-02T04:30:02;6.00;63.80
32139;DHT22;18644;48.700;9.210;2024-03-02T04:32:31;6.00;63.80
32139;DHT22;18644;48.700;9.210;2024-03-02T04:34:58;5.90;63.80
32139;DHT22;18644;48.700;9.210;2024-03-02T04:37:25;5.80;63.90
32139;DHT22;18644;48.700;9.210;2024-03-02T04:39:53;5.80;63.90
32139;DHT22;18644;48.700;9.210;2024-03-02T04:42:20;5.80;63.90
32139;DHT22;18644;48.700;9.210;2024-03-02T04:44:48;5.70;63.90
32139;DHT22;18644;48.700;9.210;2024-03-02T04:47:14;5.70;64.00
32139;DHT22;18644;48.700;9.210;2024-03-02T04:49:42;5.70;64.10
32139;DHT22;18644;48.700;9.210;2024-03-02T04:52:09;5.70;64.20
32139;DHT22;18644;48.700;9.210;2024-03-02T04:54:36;5.60;64.10
32139;DHT22;18644;48.700;9.210;2024-03-02T04:57:25;5.60;64.10
32139;DHT22;18644;48.700;9.210;2024-03-02T04:59:52;5.60;64.00
32139;DHT22;18644;48.700;9.210;2024-03-02T05:02:19;5.50;63.90
32139;DHT22;18644;48.700;9.210;2024-03-02T05:04:45;5.50;64.00
32139;DHT22;18644;48.700;9.210;2024-03-02T05:07:14;5.50;64.00
32139;DHT22;18644;48.700;9.210;2024-03-02T05:09:41;5.40;64.00
32139;DHT22;18644;48.700;9.210;2024-03-02T05:12:08;5.40;64.00
32139;DHT22;18644;48.700;9.210;2024-03-02T05:15:07;5.40;64.10
32139;DHT22;18644;48.700;9.210;2024-03-02T05:17:35;5.30;64.00
32139;DHT22;18644;48.700;9.210;2024-03-02T05:20:03;5.30;64.00
32139;DHT22;18644;48.700;9.210;2024-03-02T05:22:30;5.30;64.00
32139;DHT22;18644;48.700;9.210;2024-03-02T05:24:57;5.20;63.70
32139;DHT22;18644;48.700;9.210;2024-03-02T05:27:25;5.20;63.70
32139;DHT22;18644;48.700;9.210;2024-03-02T05:29:52;5.20;63.80
32139;DHT22;18644;48.700;9.210;2024-03-02T05:32:20;5.10;63.80
32139;DHT22;18644;48.700;9.210;2024-03-02T05:34:47;5.10;63.90
32139;DHT22;18644;48.700;9.210;2024-03-02T05:37:14;5.00;63.90
32139;DHT22;18644;48.700;9.210;2024-03-02T05:39:41;5.00;64.00
32139;DHT22;18644;48.700;9.210;2024-03-02T05:42:08;5.00;64.10
32139;DHT22;18644;48.700;9.210;2024-03-02T05:44:35;4.90;64.10
32139;DHT22;18644;48.700;9.210;2024-03-02T05:47:18;4.90;64.20
32139;DHT22;18644;48.700;9.210;2024-03-02T05:49:44;4.80;64.30
32139;DHT22;18644;48.700;9.210;2024-03-02T05:52:11;4.90;64.40
32139;DHT22;18644;48.700;9.210;2024-03-02T05:54:38;4.90;64.50
32139;DHT22;18644;48.700;9.210;2024-03-02T05:57:05;4.80;64.60
32139;DHT22;18644;48.700;9.210;2024-03-02T05:59:52;4.80;64.70
32139;DHT22;18644;48.700;9.210;2024-03-02T06:02:20;4.80;64.60
32139;DHT22;18644;48.700;9.210;2024-03-02T06:04:47;4.80;64.60
32139;DHT22;18644;48.700;9.210;2024-03-02T06:07:14;4.80;64.70
32139;DHT22;18644;48.700;9.210;2024-03-02T06:09:41;4.80;64.90
32139;DHT22;18644;48.700;9.210;2024-03-02T06:12:10;4.70;64.70
32139;DHT22;18644;48.700;9.210;2024-03-02T06:14:37;4.70;64.70
32139;DHT22;18644;48.700;9.210;2024-03-02T06:17:04;4.70;64.70
32139;DHT22;18644;48.700;9.210;2024-03-02T06:19:33;4.70;64.60
32139;DHT22;18644;48.700;9.210;2024-03-02T06:22:00;4.70;64.80
32139;DHT22;18644;48.700;9.210;2024-03-02T06:24:26;4.70;65.00
32139;DHT22;18644;48.700;9.210;2024-03-02T06:26:53;4.70;65.30
32139;DHT22;18644;48.700;9.210;2024-03-02T06:29:20;4.70;65.50
32139;DHT22;18644;48.700;9.210;2024-03-02T06:31:47;4.70;65.60
32139;DHT22;18644;48.700;9.210;2024-03-02T06:34:14;4.70;65.70
32139;DHT22;18644;48.700;9.210;2024-03-02T06:36:42;4.70;65.80
32139;DHT22;18644;48.700;9.210;2024-03-02T06:39:09;4.70;65.90
32139;DHT22;18644;48.700;9.210;2024-03-02T06:41:38;4.80;66.00
32139;DHT22;18644;48.700;9.210;2024-03-02T06:44:04;4.80;66.10
32139;DHT22;18644;48.700;9.210;2024-03-02T06:46:32;4.80;66.20
32139;DHT22;18644;48.700;9.210;2024-03-02T06:48:59;4.80;66.40
32139;DHT22;18644;48.700;9.210;2024-03-02T06:51:27;4.90;66.50
32139;DHT22;18644;48.700;9.210;2024-03-02T06:53:56;4.90;66.60
32139;DHT22;18644;48.700;9.210;2024-03-02T06:56:22;5.00;66.70
32139;DHT22;18644;48.700;9.210;2024-03-02T06:58:49;5.00;66.80
32139;DHT22;18644;48.700;9.210;2024-03-02T07:01:16;5.10;67.00
32139;DHT22;18644;48.700;9.210;2024-03-02T07:03:43;5.10;67.10
32139;DHT22;18644;48.700;9.210;2024-03-02T07:06:10;5.20;67.30
32139;DHT22;18644;48.700;9.210;2024-03-02T07:08:37;5.20;67.40
32139;DHT22;18644;48.700;9.210;2024-03-02T07:11:05;5.30;67.50
32139;DHT22;18644;48.700;9.210;2024-03-02T07:13:32;5.40;67.70
32139;DHT22;18644;48.700;9.210;2024-03-02T07:15:59;5.40;67.80
32139;DHT22;18644;48.700;9.210;2024-03-02T07:18:48;5.50;68.00
32139;DHT22;18644;48.700;9.210;2024-03-02T07:21:17;5.60;68.10
32139;DHT22;18644;48.700;9.210;2024-03-02T07:23:44;5.70;68.30
32139;DHT22;18644;48.700;9.210;2024-03-02T07:26:12;5.80;68.50
32139;DHT22;18644;48.700;9.210;2024-03-02T07:28:40;5.90;68.80
32139;DHT22;18644;48.700;9.210;2024-03-02T07:31:07;6.00;69.10
32139;DHT22;18644;48.700;9.210;2024-03-02T07:33:35;6.10;69.40
32139;DHT22;18644;48.700;9.210;2024-03-02T07:36:02;6.30;69.90
32139;DHT22;18644;48.700;9.210;2024-03-02T07:38:30;6.40;70.20
32139;DHT22;18644;48.700;9.210;2024-03-02T07:40:58;6.60;70.50
32139;DHT22;18644;48.700;9.210;2024-03-02T07:43:27;6.70;70.60
32139;DHT22;18644;48.700;9.210;2024-03-02T07:45:54;6.90;70.70
32139;DHT22;18644;48.700;9.210;2024-03-02T07:48:21;7.00;70.60
32139;DHT22;18644;48.700;9.210;2024-03-02T07:50:48;7.20;70.60
32139;DHT22;18644;48.700;9.210;2024-03-02T07:53:15;7.30;70.50
32139;DHT22;18644;48.700;9.210;2024-03-02T07:55:42;7.50;70.40
32139;DHT22;18644;48.700;9.210;2024-03-02T07:58:10;7.60;70.30
32139;DHT22;18644;48.700;9.210;2024-03-02T08:00:40;7.70;70.00
32139;DHT22;18644;48.700;9.210;2024-03-02T08:03:07;7.80;69.60
32139;DHT22;18644;48.700;9.210;2024-03-02T08:05:36;7.90;69.40
32139;DHT22;18644;48.700;9.210;2024-03-02T08:08:04;8.00;69.30
32139;DHT22;18644;48.700;9.210;2024-03-02T08:10:31;8.00;69.10
32139;DHT22;18644;48.700;9.210;2024-03-02T08:12:59;8.20;69.10
32139;DHT22;18644;48.700;9.210;2024-03-02T08:15:26;8.20;69.00
32139;DHT22;18644;48.700;9.210;2024-03-02T08:17:54;8.30;69.00
32139;DHT22;18644;48.700;9.210;2024-03-02T08:20:21;8.40;68.80
32139;DHT22;18644;48.700;9.210;2024-03-02T08:22:48;8.50;68.80
32139;DHT22;18644;48.700;9.210;2024-03-02T08:25:16;8.50;68.50
32139;DHT22;18644;48.700;9.210;2024-03-02T08:27:43;8.60;68.40
32139;DHT22;18644;48.700;9.210;2024-03-02T08:30:11;8.70;68.50
32139;DHT22;18644;48.700;9.210;2024-03-02T08:32:39;8.80;68.60
32139;DHT22;18644;48.700;9.210;2024-03-02T08:35:08;8.90;68.80
32139;DHT22;18644;48.700;9.210;2024-03-02T08:37:37;8.90;68.90
32139;DHT22;18644;48.700;9.210;2024-03-02T08:40:07;9.10;69.90
32139;DHT22;18644;48.700;9.210;2024-03-02T08:42:35;9.20;69.20
32139;DHT22;18644;48.700;9.210;2024-03-02T08:45:02;9.30;69.20
32139;DHT22;18644;48.700;9.210;2024-03-02T08:47:29;9.40;69.20
32139;DHT22;18644;48.700;9.210;2024-03-02T08:49:56;9.60;69.30
32139;DHT22;18644;48.700;9.210;2024-03-02T08:52:24;9.70;69.40
32139;DHT22;18644;48.700;9.210;2024-03-02T08:54:51;9.90;69.40
32139;DHT22;18644;48.700;9.210;2024-03-02T08:57:18;10.10;69.30
32139;DHT22;18644;48.700;9.210;2024-03-02T08:59:46;10.20;69.10
32139;DHT22;18644;48.700;9.210;2024-03-02T09:02:13;10.40;69.10
32139;DHT22;18644;48.700;9.210;2024-03-02T09:04:40;10.50;69.10
32139;DHT22;18644;48.700;9.210;2024-03-02T09:07:07;10.70;69.20
32139;DHT22;18644;48.700;9.210;2024-03-02T09:09:36;10.80;68.80
32139;DHT22;18644;48.700;9.210;2024-03-02T09:12:04;11.00;68.50
32139;DHT22;18644;48.700;9.210;2024-03-02T09:14:31;11.10;68.10
32139;DHT22;18644;48.700;9.210;2024-03-02T09:16:58;11.30;67.70
32139;DHT22;18644;48.700;9.210;2024-03-02T09:19:25;11.50;67.80
32139;DHT22;18644;48.700;9.210;2024-03-02T09:21:52;11.60;67.70
32139;DHT22;18644;48.700;9.210;2024-03-02T09:24:21;11.80;67.60
32139;DHT22;18644;48.700;9.210;2024-03-02T09:26:49;11.90;67.10
32139;DHT22;18644;48.700;9.210;2024-03-02T09:29:16;12.10;66.80
32139;DHT22;18644;48.700;9.210;2024-03-02T09:31:43;12.30;66.80
32139;DHT22;18644;48.700;9.210;2024-03-02T09:34:10;12.40;66.70
32139;DHT22;18644;48.700;9.210;2024-03-02T09:36:37;12.50;66.40
32139;DHT22;18644;48.700;9.210;2024-03-02T09:39:04;12.70;66.20
32139;DHT22;18644;48.700;9.210;2024-03-02T09:41:32;12.80;65.60
32139;DHT22;18644;48.700;9.210;2024-03-02T09:44:01;13.00;65.40
32139;DHT22;18644;48.700;9.210;2024-03-02T09:46:29;13.20;65.30
32139;DHT22;18644;48.700;9.210;2024-03-02T09:48:56;13.30;64.80
32139;DHT22;18644;48.700;9.210;2024-03-02T09:51:23;13.50;64.70
32139;DHT22;18644;48.700;9.210;2024-03-02T09:53:50;13.70;64.70
32139;DHT22;18644;48.700;9.210;2024-03-02T09:56:18;13.80;64.40
32139;DHT22;18644;48.700;9.210;2024-03-02T09:58:45;14.00;64.20
32139;DHT22;18644;48.700;9.210;2024-03-02T10:01:13;14.20;63.60
32139;DHT22;18644;48.700;9.210;2024-03-02T10:03:40;14.30;63.00
32139;DHT22;18644;48.700;9.210;2024-03-02T10:06:19;14.40;63.00
32139;DHT22;18644;48.700;9.210;2024-03-02T10:08:46;14.60;62.00
32139;DHT22;18644;48.700;9.210;2024-03-02T10:11:26;14.70;62.10
32139;DHT22;18644;48.700;9.210;2024-03-02T10:14:05;14.90;62.20
32139;DHT22;18644;48.700;9.210;2024-03-02T10:16:35;15.00;62.40
32139;DHT22;18644;48.700;9.210;2024-03-02T10:19:16;15.20;62.50
32139;DHT22;18644;48.700;9.210;2024-03-02T10:21:44;15.30;61.60
32139;DHT22;18644;48.700;9.210;2024-03-02T10:24:11;15.50;61.50
32139;DHT22;18644;48.700;9.210;2024-03-02T10:26:38;15.60;60.60
32139;DHT22;18644;48.700;9.210;2024-03-02T10:29:07;15.70;59.80
32139;DHT22;18644;48.700;9.210;2024-03-02T10:31:37;15.80;59.80
32139;DHT22;18644;48.700;9.210;2024-03-02T10:34:05;16.00;59.90
32139;DHT22;18644;48.700;9.210;2024-03-02T10:36:33;16.10;59.70
32139;DHT22;18644;48.700;9.210;2024-03-02T10:39:02;16.20;59.50
32139;DHT22;18644;48.700;9.210;2024-03-02T10:41:31;16.40;59.50
32139;DHT22;18644;48.700;9.210;2024-03-02T10:43:59;16.60;59.50
32139;DHT22;18644;48.700;9.210;2024-03-02T10:46:29;16.70;59.00
32139;DHT22;18644;48.700;9.210;2024-03-02T10:48:59;16.90;58.20
32139;DHT22;18644;48.700;9.210;2024-03-02T10:51:27;17.00;57.80
32139;DHT22;18644;48.700;9.210;2024-03-02T10:53:57;17.10;57.40
32139;DHT22;18644;48.700;9.210;2024-03-02T10:56:28;17.20;57.30
32139;DHT22;18644;48.700;9.210;2024-03-02T10:59:01;17.30;57.20
32139;DHT22;18644;48.700;9.210;2024-03-02T11:01:32;17.50;57.10
32139;DHT22;18644;48.700;9.210;2024-03-02T11:04:09;17.60;57.40
32139;DHT22;18644;48.700;9.210;2024-03-02T11:06:36;17.70;56.20
32139;DHT22;18644;48.700;9.210;2024-03-02T11:09:06;17.90;56.30
32139;DHT22;18644;48.700;9.210;2024-03-02T11:11:40;18.00;56.20
32139;DHT22;18644;48.700;9.210;2024-03-02T11:14:13;18.20;55.70
32139;DHT22;18644;48.700;9.210;2024-03-02T11:16:40;18.30;55.30
32139;DHT22;18644;48.700;9.210;2024-03-02T11:19:11;18.40;54.90
32139;DHT22;18644;48.700;9.210;2024-03-02T11:21:39;18.50;54.50
32139;DHT22;18644;48.700;9.210;2024-03-02T11:24:28;18.60;54.50
32139;DHT22;18644;48.700;9.210;2024-03-02T11:26:58;18.70;53.00
32139;DHT22;18644;48.700;9.210;2024-03-02T11:29:46;18.80;53.60
32139;DHT22;18644;48.700;9.210;2024-03-02T11:32:16;19.00;53.20
32139;DHT22;18644;48.700;9.210;2024-03-02T11:34:47;19.00;54.30
32139;DHT22;18644;48.700;9.210;2024-03-02T11:37:15;19.20;53.90
32139;DHT22;18644;48.700;9.210;2024-03-02T11:39:44;19.30;53.20
32139;DHT22;18644;48.700;9.210;2024-03-02T11:42:12;19.40;52.80
32139;DHT22;18644;48.700;9.210;2024-03-02T11:44:42;19.50;52.60
32139;DHT22;18644;48.700;9.210;2024-03-02T11:47:12;19.60;52.30
32139;DHT22;18644;48.700;9.210;2024-03-02T11:49:46;19.70;52.50
32139;DHT22;18644;48.700;9.210;2024-03-02T11:52:16;19.70;52.20
32139;DHT22;18644;48.700;9.210;2024-03-02T11:54:44;19.90;52.00
32139;DHT22;18644;48.700;9.210;2024-03-02T11:57:17;20.00;51.70
32139;DHT22;18644;48.700;9.210;2024-03-02T11:59:45;20.00;51.90
32139;DHT22;18644;48.700;9.210;2024-03-02T12:02:16;20.10;51.80
32139;DHT22;18644;48.700;9.210;2024-03-02T12:04:46;20.20;51.60
32139;DHT22;18644;48.700;9.210;2024-03-02T12:07:19;20.20;50.30
32139;DHT22;18644;48.700;9.210;2024-03-02T12:09:49;20.30;50.10
32139;DHT22;18644;48.700;9.210;2024-03-02T12:12:16;20.40;50.40
32139;DHT22;18644;48.700;9.210;2024-03-02T12:14:51;20.40;50.40
32139;DHT22;18644;48.700;9.210;2024-03-02T12:17:22;20.50;50.40
32139;DHT22;18644;48.700;9.210;2024-03-02T12:19:51;20.60;50.30
32139;DHT22;18644;48.700;9.210;2024-03-02T12:22:18;20.70;50.00
32139;DHT22;18644;48.700;9.210;2024-03-02T12:24:45;20.80;50.30
32139;DHT22;18644;48.700;9.210;2024-03-02T12:27:13;20.90;49.70
32139;DHT22;18644;48.700;9.210;2024-03-02T12:29:41;21.00;48.90
32139;DHT22;18644;48.700;9.210;2024-03-02T12:32:08;21.10;48.90
32139;DHT22;18644;48.700;9.210;2024-03-02T12:34:35;21.10;49.00
32139;DHT22;18644;48.700;9.210;2024-03-02T12:37:05;21.20;48.60
32139;DHT22;18644;48.700;9.210;2024-03-02T12:39:32;21.30;48.10
32139;DHT22;18644;48.700;9.210;2024-03-02T12:41:59;21.40;47.30
32139;DHT22;18644;48.700;9.210;2024-03-02T12:44:26;21.40;47.40
32139;DHT22;18644;48.700;9.210;2024-03-02T12:46:53;21.50;47.70
32139;DHT22;18644;48.700;9.210;2024-03-02T12:49:22;21.50;47.30
32139;DHT22;18644;48.700;9.210;2024-03-02T12:51:49;21.60;47.00
32139;DHT22;18644;48.700;9.210;2024-03-02T12:54:22;21.70;46.80
32139;DHT22;18644;48.700;9.210;2024-03-02T12:56:50;21.80;46.30
32139;DHT22;18644;48.700;9.210;2024-03-02T12:59:20;21.80;46.30
32139;DHT22;18644;48.700;9.210;2024-03-02T13:01:51;21.90;45.90
32139;DHT22;18644;48.700;9.210;2024-03-02T13:04:22;22.00;45.80
32139;DHT22;18644;48.700;9.210;2024-03-02T13:06:50;22.10;45.60
32139;DHT22;18644;48.700;9.210;2024-03-02T13:09:17;22.20;45.80
32139;DHT22;18644;48.700;9.210;2024-03-02T13:11:46;22.20;45.80
32139;DHT22;18644;48.700;9.210;2024-03-02T13:14:13;22.30;45.20
32139;DHT22;18644;48.700;9.210;2024-03-02T13:16:41;22.40;45.70
32139;DHT22;18644;48.700;9.210;2024-03-02T13:19:08;22.50;45.30
32139;DHT22;18644;48.700;9.210;2024-03-02T13:21:34;22.50;45.30
32139;DHT22;18644;48.700;9.210;2024-03-02T13:24:01;22.60;45.10
32139;DHT22;18644;48.700;9.210;2024-03-02T13:26:29;22.70;44.20
32139;DHT22;18644;48.700;9.210;2024-03-02T13:28:57;22.70;44.10
32139;DHT22;18644;48.700;9.210;2024-03-02T13:31:24;22.80;44.20
32139;DHT22;18644;48.700;9.210;2024-03-02T13:33:51;22.90;44.20
32139;DHT22;18644;48.700;9.210;2024-03-02T13:36:18;22.90;44.00
32139;DHT22;18644;48.700;9.210;2024-03-02T13:38:45;23.00;43.20
32139;DHT22;18644;48.700;9.210;2024-03-02T13:41:12;23.10;43.20
32139;DHT22;18644;48.700;9.210;2024-03-02T13:43:39;23.10;43.30
32139;DHT22;18644;48.700;9.210;2024-03-02T13:46:07;23.20;43.10
32139;DHT22;18644;48.700;9.210;2024-03-02T13:48:35;23.30;42.80
32139;DHT22;18644;48.700;9.210;2024-03-02T13:51:02;23.30;42.30
32139;DHT22;18644;48.700;9.210;2024-03-02T13:53:30;23.40;41.70
32139;DHT22;18644;48.700;9.210;2024-03-02T13:55:57;23.40;41.60
32139;DHT22;18644;48.700;9.210;2024-03-02T13:58:24;23.40;41.20
32139;DHT22;18644;48.700;9.210;2024-03-02T14:00:52;23.40;40.80
32139;DHT22;18644;48.700;9.210;2024-03-02T14:03:20;23.40;40.30
32139;DHT22;18644;48.700;9.210;2024-03-02T14:05:47;23.40;40.50
32139;DHT22;18644;48.700;9.210;2024-03-02T14:08:15;23.40;40.00
32139;DHT22;18644;48.700;9.210;2024-03-02T14:10:43;23.30;39.90
32139;DHT22;18644;48.700;9.210;2024-03-02T14:13:10;23.20;39.70
32139;DHT22;18644;48.700;9.210;2024-03-02T14:15:37;23.20;39.60
32139;DHT22;18644;48.700;9.210;2024-03-02T14:18:05;23.20;39.60
32139;DHT22;18644;48.700;9.210;2024-03-02T14:20:33;23.10;39.30
32139;DHT22;18644;48.700;9.210;2024-03-02T14:23:00;23.10;38.90
32139;DHT22;18644;48.700;9.210;2024-03-02T14:25:28;23.00;38.80
32139;DHT22;18644;48.700;9.210;2024-03-02T14:27:56;23.00;39.50
32139;DHT22;18644;48.700;9.210;2024-03-02T14:30:23;22.90;38.90
32139;DHT22;18644;48.700;9.210;2024-03-02T14:32:50;22.80;38.80
32139;DHT22;18644;48.700;9.210;2024-03-02T14:35:17;22.80;39.40
32139;DHT22;18644;48.700;9.210;2024-03-02T14:37:46;22.80;38.70
32139;DHT22;18644;48.700;9.210;2024-03-02T14:40:13;22.70;38.30
32139;DHT22;18644;48.700;9.210;2024-03-02T14:42:40;22.70;38.10
32139;DHT22;18644;48.700;9.210;2024-03-02T14:45:08;22.60;38.00
32139;DHT22;18644;48.700;9.210;2024-03-02T14:47:35;22.50;38.10
32139;DHT22;18644;48.700;9.210;2024-03-02T14:50:02;22.50;38.00
32139;DHT22;18644;48.700;9.210;2024-03-02T14:52:31;22.40;37.80
32139;DHT22;18644;48.700;9.210;2024-03-02T14:55:00;22.30;37.70
32139;DHT22;18644;48.700;9.210;2024-03-02T14:57:28;22.20;37.80
32139;DHT22;18644;48.700;9.210;2024-03-02T14:59:55;22.20;38.00
32139;DHT22;18644;48.700;9.210;2024-03-02T15:02:22;22.20;38.10
32139;DHT22;18644;48.700;9.210;2024-03-02T15:04:49;22.20;37.90
32139;DHT22;18644;48.700;9.210;2024-03-02T15:07:16;22.10;37.70
32139;DHT22;18644;48.700;9.210;2024-03-02T15:09:43;22.10;37.60
32139;DHT22;18644;48.700;9.210;2024-03-02T15:12:11;22.10;37.80
32139;DHT22;18644;48.700;9.210;2024-03-02T15:14:40;22.10;36.70
32139;DHT22;18644;48.700;9.210;2024-03-02T15:17:12;22.00;36.80
32139;DHT22;18644;48.700;9.210;2024-03-02T15:19:41;21.90;36.50
32139;DHT22;18644;48.700;9.210;2024-03-02T15:22:08;21.80;36.60
32139;DHT22;18644;48.700;9.210;2024-03-02T15:24:35;21.60;36.70
32139;DHT22;18644;48.700;9.210;2024-03-02T15:27:02;21.50;36.70
32139;DHT22;18644;48.700;9.210;2024-03-02T15:29:32;21.40;36.40
32139;DHT22;18644;48.700;9.210;2024-03-02T15:31:59;21.30;36.60
32139;DHT22;18644;48.700;9.210;2024-03-02T15:34:26;21.10;36.60
32139;DHT22;18644;48.700;9.210;2024-03-02T15:36:54;20.90;36.90
32139;DHT22;18644;48.700;9.210;2024-03-02T15:39:20;20.80;36.90
32139;DHT22;18644;48.700;9.210;2024-03-02T15:41:47;20.70;36.90
32139;DHT22;18644;48.700;9.210;2024-03-02T15:44:14;20.50;37.10
32139;DHT22;18644;48.700;9.210;2024-03-02T15:46:43;20.30;37.20